Marco Polo — BR2031 — position and weather

sailwx.info

Track history (hours):
 
Tides and Currents Weather Stations Pressure Air Temp Water Temp Dewpoint Dewpoint Depression Visibility Wind Speed Wind Dir Waves Ship Positions

Marco Polo

Last reported at 2016-May-01 15:31 UTC. Time now 2016-May-01 15:34 UTC.
Position N 24°25' E 118°17'.

Length 32 m.

MMSI: 416000256.

Date/timePositionNaut miles runAvg speedWind from/ knotsBaromVisibWave heightAir tempDewpointWater temp
2016-May-01 15:31N 24°25' E 118°17'0 0.0
2016-May-01 14:33N 24°25' E 118°17'6 1.3
2016-May-01 10:13N 24°30' E 118°15'4 5.6
2016-May-01 09:33N 24°32' E 118°11'8 7.7
2016-May-01 08:31N 24°26' E 118°17'1 1.2
2016-May-01 07:33N 24°25' E 118°17'0 0.0
2016-May-01 06:15N 24°25' E 118°17'811.7
2016-May-01 05:33N 24°32' E 118°12'0 0.1
2016-May-01 04:33N 24°32' E 118°12'8 8.1
2016-May-01 03:33N 24°25' E 118°17'0 0.0
2016-May-01 02:33N 24°25' E 118°17'0 0.5
2016-May-01 01:33N 24°25' E 118°17'0 0.0
2016-May-01 00:33N 24°25' E 118°17'0 0.0
2016-Apr-30 23:33N 24°25' E 118°17'0 0.0
2016-Apr-30 22:33N 24°25' E 118°17'0 0.0
2016-Apr-30 21:33N 24°25' E 118°17'0 0.0
2016-Apr-30 20:33N 24°25' E 118°17'0 0.0
2016-Apr-30 19:33N 24°25' E 118°17'0 0.0
2016-Apr-30 18:33N 24°25' E 118°17'0 0.0
2016-Apr-30 17:33N 24°25' E 118°17'0 0.0
2016-Apr-30 16:34N 24°25' E 118°17'0 0.0
2016-Apr-30 15:33N 24°25' E 118°17'0 0.0
2016-Apr-30 14:33N 24°25' E 118°17'0 0.0
2016-Apr-30 09:33N 24°25' E 118°17'0 0.0
2016-Apr-30 08:33N 24°25' E 118°17'8 7.7
2016-Apr-30 07:34N 24°32' E 118°12'0 0.1
2016-Apr-30 06:33N 24°32' E 118°13'8 8.0
2016-Apr-30 05:33N 24°25' E 118°17'0 0.1
2016-Apr-30 04:26N 24°25' E 118°17'0 0.0
2016-Apr-30 03:33N 24°25' E 118°17'0 0.4
2016-Apr-30 02:34N 24°25' E 118°17'7 7.1
2016-Apr-30 01:33N 24°31' E 118°13'8 7.5
2016-Apr-30 00:33N 24°25' E 118°17'0 0.0
2016-Apr-29 23:32N 24°25' E 118°17'0 0.0
2016-Apr-29 22:32N 24°25' E 118°17'0 0.0
2016-Apr-29 21:33N 24°25' E 118°17'0 0.0
2016-Apr-29 20:33N 24°25' E 118°17'0 0.0
2016-Apr-29 19:33N 24°25' E 118°17'0 0.0
2016-Apr-29 18:33N 24°25' E 118°17'0 0.0
2016-Apr-29 17:33N 24°25' E 118°17'0 0.0
2016-Apr-29 16:33N 24°25' E 118°17'0 0.0
2016-Apr-29 15:33N 24°25' E 118°17'0 0.0
2016-Apr-29 14:33N 24°25' E 118°17'9 1.8
2016-Apr-29 09:33N 24°32' E 118°11'9 8.9
2016-Apr-29 08:33N 24°25' E 118°17'0 0.1
2016-Apr-29 07:30N 24°25' E 118°17'0 0.0
2016-Apr-29 06:32N 24°25' E 118°17'0 0.0
2016-Apr-29 05:33N 24°25' E 118°17'0 0.0
2016-Apr-29 04:32N 24°25' E 118°17'9 8.8
2016-Apr-29 03:33N 24°32' E 118°12'1 0.8
2016-Apr-29 02:33N 24°32' E 118°13'8 7.8
2016-Apr-29 01:33N 24°25' E 118°17'0 0.0
2016-Apr-29 00:33N 24°25' E 118°17'0 0.0
2016-Apr-28 23:33N 24°25' E 118°17'0 0.0
2016-Apr-28 22:33N 24°25' E 118°17'0 0.0
2016-Apr-28 21:34N 24°25' E 118°17'0 0.0
2016-Apr-28 20:33N 24°25' E 118°17'0 0.0
2016-Apr-28 19:33N 24°25' E 118°17'0 0.0
2016-Apr-28 18:33N 24°25' E 118°17'0 0.0
2016-Apr-28 17:33N 24°25' E 118°17'0 0.0
2016-Apr-28 16:32N 24°25' E 118°17'0 0.0
2016-Apr-28 09:33N 24°25' E 118°17'9 8.9
2016-Apr-28 08:33N 24°32' E 118°11'9 8.4
2016-Apr-28 07:31N 24°25' E 118°17'0 0.2
2016-Apr-28 06:32N 24°25' E 118°17'0 0.5
2016-Apr-28 05:33N 24°25' E 118°17'0 0.0
2016-Apr-28 04:33N 24°25' E 118°17'8 8.2
2016-Apr-28 03:33N 24°32' E 118°12'1 0.5
2016-Apr-28 02:30N 24°32' E 118°12'8 8.4
2016-Apr-28 01:33N 24°25' E 118°17'9 9.1
2016-Apr-28 00:33N 24°32' E 118°11'9 9.0
2016-Apr-27 23:33N 24°25' E 118°17'0 0.0
2016-Apr-27 22:33N 24°25' E 118°17'0 0.0
2016-Apr-27 21:33N 24°25' E 118°17'0 0.0
2016-Apr-27 20:33N 24°25' E 118°17'0 0.0
2016-Apr-27 19:33N 24°25' E 118°17'0 0.0
2016-Apr-27 18:32N 24°25' E 118°17'0 0.0
2016-Apr-27 17:33N 24°25' E 118°17'0 0.0
2016-Apr-27 16:33N 24°25' E 118°17'0 0.0
2016-Apr-27 15:33N 24°25' E 118°17'0 0.0
2016-Apr-27 14:33N 24°25' E 118°17'8 1.9
2016-Apr-27 10:29N 24°32' E 118°13'7 7.4
2016-Apr-27 09:32N 24°26' E 118°17'1 1.1
2016-Apr-27 08:33N 24°25' E 118°17'0 0.5
2016-Apr-27 07:33N 24°25' E 118°17'7 7.1
2016-Apr-27 06:33N 24°31' E 118°13'2 1.9
2016-Apr-27 05:33N 24°32' E 118°11'9 9.1
2016-Apr-27 04:33N 24°25' E 118°17'0 0.1
2016-Apr-27 03:32N 24°25' E 118°17'9 9.1
2016-Apr-27 02:33N 24°32' E 118°11'9 9.0
2016-Apr-27 01:33N 24°25' E 118°17'0 0.0
2016-Apr-27 00:33N 24°25' E 118°17'0 0.0
2016-Apr-26 23:32N 24°25' E 118°17'0 0.0
2016-Apr-26 22:32N 24°25' E 118°17'0 0.0
2016-Apr-26 21:33N 24°25' E 118°17'0 0.0
2016-Apr-26 20:32N 24°25' E 118°17'0 0.0
2016-Apr-26 19:33N 24°25' E 118°17'0 0.0
2016-Apr-26 18:32N 24°25' E 118°17'0 0.0
2016-Apr-26 17:33N 24°25' E 118°17'0 0.0
2016-Apr-26 16:33N 24°25' E 118°17'0 0.0
2016-Apr-26 15:32N 24°25' E 118°17'0 0.0
2016-Apr-26 14:33N 24°25' E 118°17'2 0.3
2016-Apr-26 09:24N 24°27' E 118°17'8 9.0
2016-Apr-26 08:33N 24°32' E 118°11'9 8.4
2016-Apr-26 07:29N 24°25' E 118°17'0 0.2
2016-Apr-26 06:05N 24°25' E 118°17'0 0.4
2016-Apr-26 05:33N 24°25' E 118°17'0 0.0
2016-Apr-26 04:32N 24°25' E 118°17'1 0.6
2016-Apr-26 02:33N 24°27' E 118°17'7 6.8
2016-Apr-26 01:33N 24°32' E 118°12'8 7.8
2016-Apr-26 00:32N 24°25' E 118°17'0 0.0
2016-Apr-25 23:33N 24°25' E 118°17'0 0.0
2016-Apr-25 22:33N 24°25' E 118°17'0 0.0
2016-Apr-25 21:33N 24°25' E 118°17'0 0.0
2016-Apr-25 20:33N 24°25' E 118°17'0 0.0
2016-Apr-25 19:33N 24°25' E 118°17'0 0.0
2016-Apr-25 18:33N 24°25' E 118°17'0 0.0
2016-Apr-25 17:33N 24°25' E 118°17'0 0.0
2016-Apr-25 16:33N 24°25' E 118°17'0 0.0
2016-Apr-25 15:33N 24°25' E 118°17'0 0.0
2016-Apr-25 14:33N 24°25' E 118°17'9 1.8
2016-Apr-25 09:33N 24°32' E 118°11'9 8.5
2016-Apr-25 08:33N 24°25' E 118°17'0 0.3
2016-Apr-25 07:32N 24°25' E 118°17'0 0.0
2016-Apr-25 06:32N 24°25' E 118°17'7 7.5
2016-Apr-25 05:33N 24°32' E 118°13'1 1.0
2016-Apr-25 04:33N 24°32' E 118°12'9 8.7
2016-Apr-25 03:33N 24°25' E 118°17'0 0.5
2016-Apr-25 02:32N 24°25' E 118°17'0 0.0
2016-Apr-25 01:33N 24°25' E 118°17'0 0.0
2016-Apr-25 00:32N 24°25' E 118°17'0 0.0
2016-Apr-24 23:33N 24°25' E 118°17'0 0.0
2016-Apr-24 22:33N 24°25' E 118°17'0 0.0
2016-Apr-24 21:33N 24°25' E 118°17'0 0.0
2016-Apr-24 20:33N 24°25' E 118°17'0 0.0
2016-Apr-24 19:33N 24°25' E 118°17'0 0.0
2016-Apr-24 18:33N 24°25' E 118°17'0 0.0
2016-Apr-24 17:32N 24°25' E 118°17'0 0.0
2016-Apr-24 16:33N 24°25' E 118°17'0 0.0
2016-Apr-24 15:31N 24°25' E 118°17'0 0.0
2016-Apr-24 14:34N 24°25' E 118°17'0 0.1
2016-Apr-24 09:33N 24°25' E 118°17'0 0.5
2016-Apr-24 08:33N 24°25' E 118°17'7 6.8
2016-Apr-24 07:33N 24°31' E 118°13'1 1.2
2016-Apr-24 06:33N 24°32' E 118°12'8 8.1
2016-Apr-24 05:33N 24°25' E 118°17'0 0.1
2016-Apr-24 04:33N 24°25' E 118°17'8 8.0
2016-Apr-24 03:33N 24°32' E 118°12'1 0.6
2016-Apr-24 02:33N 24°32' E 118°12'9 7.7
2016-Apr-24 01:26N 24°25' E 118°17'0 0.0
2016-Apr-23 06:25N 24°25' E 118°17'8 8.9
2016-Apr-23 05:32N 24°32' E 118°13'0 0.1
2016-Apr-23 04:32N 24°32' E 118°12'8 8.0
2016-Apr-23 03:33N 24°25' E 118°17'0 0.0
2016-Apr-23 02:33N 24°25' E 118°17'2 1.6
2016-Apr-23 01:33N 24°27' E 118°17'7 6.8
2016-Apr-23 00:33N 24°32' E 118°12'8 8.1
2016-Apr-22 23:33N 24°25' E 118°17'0 0.0
2016-Apr-22 22:33N 24°25' E 118°17'0 0.0
2016-Apr-22 21:32N 24°25' E 118°17'0 0.0
2016-Apr-22 20:33N 24°25' E 118°17'0 0.0
2016-Apr-22 19:32N 24°25' E 118°17'0 0.0
2016-Apr-22 18:33N 24°25' E 118°17'0 0.0
2016-Apr-22 17:33N 24°25' E 118°17'0 0.0
2016-Apr-22 16:33N 24°25' E 118°17'0 0.0
2016-Apr-22 15:31N 24°25' E 118°17'0 0.0
2016-Apr-22 14:33N 24°25' E 118°17'9 2.2
2016-Apr-22 10:31N 24°32' E 118°11'8 8.5
2016-Apr-22 09:33N 24°26' E 118°17'1 0.9
2016-Apr-22 08:33N 24°25' E 118°17'0 0.0
2016-Apr-22 07:33N 24°25' E 118°17'9 8.7
2016-Apr-22 06:33N 24°32' E 118°12'0 0.4
2016-Apr-22 05:33N 24°32' E 118°12'8 7.9
2016-Apr-22 04:30N 24°25' E 118°17'0 0.5
2016-Apr-22 03:29N 24°25' E 118°17'0 0.0
2016-Apr-22 02:33N 24°25' E 118°17'0 0.0
2016-Apr-22 01:28N 24°25' E 118°17'0 0.0
2016-Apr-22 00:33N 24°25' E 118°17'0 0.0
2016-Apr-21 23:31N 24°25' E 118°17'0 0.0
2016-Apr-21 22:33N 24°25' E 118°17'0 0.0
2016-Apr-21 21:32N 24°25' E 118°17'0 0.0
2016-Apr-21 20:32N 24°25' E 118°17'0 0.0
2016-Apr-21 19:33N 24°25' E 118°17'0 0.0
2016-Apr-21 18:32N 24°25' E 118°17'0 0.0
2016-Apr-21 17:31N 24°25' E 118°17'0 0.0
2016-Apr-21 16:33N 24°25' E 118°17'0 0.0
2016-Apr-21 15:31N 24°25' E 118°17'  
Track history (hours):
 
Tides and Currents Weather Stations Pressure Air Temp Water Temp Dewpoint Dewpoint Depression Visibility Wind Speed Wind Dir Waves Ship Positions

Marco Polo

Last reported at 2016-May-01 15:31 UTC. Time now 2016-May-01 15:34 UTC.
Position N 24°25' E 118°17'.

Length 32 m.

MMSI: 416000256.

Date/timePositionNaut miles runAvg speedWind from/ knotsBaromVisibWave heightAir tempDewpointWater temp
2016-May-01 15:31N 24°25' E 118°17'0 0.0
2016-May-01 14:33N 24°25' E 118°17'6 1.3
2016-May-01 10:13N 24°30' E 118°15'4 5.6
2016-May-01 09:33N 24°32' E 118°11'8 7.7
2016-May-01 08:31N 24°26' E 118°17'1 1.2
2016-May-01 07:33N 24°25' E 118°17'0 0.0
2016-May-01 06:15N 24°25' E 118°17'811.7
2016-May-01 05:33N 24°32' E 118°12'0 0.1
2016-May-01 04:33N 24°32' E 118°12'8 8.1
2016-May-01 03:33N 24°25' E 118°17'0 0.0
2016-May-01 02:33N 24°25' E 118°17'0 0.5
2016-May-01 01:33N 24°25' E 118°17'0 0.0
2016-May-01 00:33N 24°25' E 118°17'0 0.0
2016-Apr-30 23:33N 24°25' E 118°17'0 0.0
2016-Apr-30 22:33N 24°25' E 118°17'0 0.0
2016-Apr-30 21:33N 24°25' E 118°17'0 0.0
2016-Apr-30 20:33N 24°25' E 118°17'0 0.0
2016-Apr-30 19:33N 24°25' E 118°17'0 0.0
2016-Apr-30 18:33N 24°25' E 118°17'0 0.0
2016-Apr-30 17:33N 24°25' E 118°17'0 0.0
2016-Apr-30 16:34N 24°25' E 118°17'0 0.0
2016-Apr-30 15:33N 24°25' E 118°17'0 0.0
2016-Apr-30 14:33N 24°25' E 118°17'0 0.0
2016-Apr-30 09:33N 24°25' E 118°17'0 0.0
2016-Apr-30 08:33N 24°25' E 118°17'8 7.7
2016-Apr-30 07:34N 24°32' E 118°12'0 0.1
2016-Apr-30 06:33N 24°32' E 118°13'8 8.0
2016-Apr-30 05:33N 24°25' E 118°17'0 0.1
2016-Apr-30 04:26N 24°25' E 118°17'0 0.0
2016-Apr-30 03:33N 24°25' E 118°17'0 0.4
2016-Apr-30 02:34N 24°25' E 118°17'7 7.1
2016-Apr-30 01:33N 24°31' E 118°13'8 7.5
2016-Apr-30 00:33N 24°25' E 118°17'0 0.0
2016-Apr-29 23:32N 24°25' E 118°17'0 0.0
2016-Apr-29 22:32N 24°25' E 118°17'0 0.0
2016-Apr-29 21:33N 24°25' E 118°17'0 0.0
2016-Apr-29 20:33N 24°25' E 118°17'0 0.0
2016-Apr-29 19:33N 24°25' E 118°17'0 0.0
2016-Apr-29 18:33N 24°25' E 118°17'0 0.0
2016-Apr-29 17:33N 24°25' E 118°17'0 0.0
2016-Apr-29 16:33N 24°25' E 118°17'0 0.0
2016-Apr-29 15:33N 24°25' E 118°17'0 0.0
2016-Apr-29 14:33N 24°25' E 118°17'9 1.8
2016-Apr-29 09:33N 24°32' E 118°11'9 8.9
2016-Apr-29 08:33N 24°25' E 118°17'0 0.1
2016-Apr-29 07:30N 24°25' E 118°17'0 0.0
2016-Apr-29 06:32N 24°25' E 118°17'0 0.0
2016-Apr-29 05:33N 24°25' E 118°17'0 0.0
2016-Apr-29 04:32N 24°25' E 118°17'9 8.8
2016-Apr-29 03:33N 24°32' E 118°12'1 0.8
2016-Apr-29 02:33N 24°32' E 118°13'8 7.8
2016-Apr-29 01:33N 24°25' E 118°17'0 0.0
2016-Apr-29 00:33N 24°25' E 118°17'0 0.0
2016-Apr-28 23:33N 24°25' E 118°17'0 0.0
2016-Apr-28 22:33N 24°25' E 118°17'0 0.0
2016-Apr-28 21:34N 24°25' E 118°17'0 0.0
2016-Apr-28 20:33N 24°25' E 118°17'0 0.0
2016-Apr-28 19:33N 24°25' E 118°17'0 0.0
2016-Apr-28 18:33N 24°25' E 118°17'0 0.0
2016-Apr-28 17:33N 24°25' E 118°17'0 0.0
2016-Apr-28 16:32N 24°25' E 118°17'0 0.0
2016-Apr-28 09:33N 24°25' E 118°17'9 8.9
2016-Apr-28 08:33N 24°32' E 118°11'9 8.4
2016-Apr-28 07:31N 24°25' E 118°17'0 0.2
2016-Apr-28 06:32N 24°25' E 118°17'0 0.5
2016-Apr-28 05:33N 24°25' E 118°17'0 0.0
2016-Apr-28 04:33N 24°25' E 118°17'8 8.2
2016-Apr-28 03:33N 24°32' E 118°12'1 0.5
2016-Apr-28 02:30N 24°32' E 118°12'8 8.4
2016-Apr-28 01:33N 24°25' E 118°17'9 9.1
2016-Apr-28 00:33N 24°32' E 118°11'9 9.0
2016-Apr-27 23:33N 24°25' E 118°17'0 0.0
2016-Apr-27 22:33N 24°25' E 118°17'0 0.0
2016-Apr-27 21:33N 24°25' E 118°17'0 0.0
2016-Apr-27 20:33N 24°25' E 118°17'0 0.0
2016-Apr-27 19:33N 24°25' E 118°17'0 0.0
2016-Apr-27 18:32N 24°25' E 118°17'0 0.0
2016-Apr-27 17:33N 24°25' E 118°17'0 0.0
2016-Apr-27 16:33N 24°25' E 118°17'0 0.0
2016-Apr-27 15:33N 24°25' E 118°17'0 0.0
2016-Apr-27 14:33N 24°25' E 118°17'8 1.9
2016-Apr-27 10:29N 24°32' E 118°13'7 7.4
2016-Apr-27 09:32N 24°26' E 118°17'1 1.1
2016-Apr-27 08:33N 24°25' E 118°17'0 0.5
2016-Apr-27 07:33N 24°25' E 118°17'7 7.1
2016-Apr-27 06:33N 24°31' E 118°13'2 1.9
2016-Apr-27 05:33N 24°32' E 118°11'9 9.1
2016-Apr-27 04:33N 24°25' E 118°17'0 0.1
2016-Apr-27 03:32N 24°25' E 118°17'9 9.1
2016-Apr-27 02:33N 24°32' E 118°11'9 9.0
2016-Apr-27 01:33N 24°25' E 118°17'0 0.0
2016-Apr-27 00:33N 24°25' E 118°17'0 0.0
2016-Apr-26 23:32N 24°25' E 118°17'0 0.0
2016-Apr-26 22:32N 24°25' E 118°17'0 0.0
2016-Apr-26 21:33N 24°25' E 118°17'0 0.0
2016-Apr-26 20:32N 24°25' E 118°17'0 0.0
2016-Apr-26 19:33N 24°25' E 118°17'0 0.0
2016-Apr-26 18:32N 24°25' E 118°17'0 0.0
2016-Apr-26 17:33N 24°25' E 118°17'0 0.0
2016-Apr-26 16:33N 24°25' E 118°17'0 0.0
2016-Apr-26 15:32N 24°25' E 118°17'0 0.0
2016-Apr-26 14:33N 24°25' E 118°17'2 0.3
2016-Apr-26 09:24N 24°27' E 118°17'8 9.0
2016-Apr-26 08:33N 24°32' E 118°11'9 8.4
2016-Apr-26 07:29N 24°25' E 118°17'0 0.2
2016-Apr-26 06:05N 24°25' E 118°17'0 0.4
2016-Apr-26 05:33N 24°25' E 118°17'0 0.0
2016-Apr-26 04:32N 24°25' E 118°17'1 0.6
2016-Apr-26 02:33N 24°27' E 118°17'7 6.8
2016-Apr-26 01:33N 24°32' E 118°12'8 7.8
2016-Apr-26 00:32N 24°25' E 118°17'0 0.0
2016-Apr-25 23:33N 24°25' E 118°17'0 0.0
2016-Apr-25 22:33N 24°25' E 118°17'0 0.0
2016-Apr-25 21:33N 24°25' E 118°17'0 0.0
2016-Apr-25 20:33N 24°25' E 118°17'0 0.0
2016-Apr-25 19:33N 24°25' E 118°17'0 0.0
2016-Apr-25 18:33N 24°25' E 118°17'0 0.0
2016-Apr-25 17:33N 24°25' E 118°17'0 0.0
2016-Apr-25 16:33N 24°25' E 118°17'0 0.0
2016-Apr-25 15:33N 24°25' E 118°17'0 0.0
2016-Apr-25 14:33N 24°25' E 118°17'9 1.8
2016-Apr-25 09:33N 24°32' E 118°11'9 8.5
2016-Apr-25 08:33N 24°25' E 118°17'0 0.3
2016-Apr-25 07:32N 24°25' E 118°17'0 0.0
2016-Apr-25 06:32N 24°25' E 118°17'7 7.5
2016-Apr-25 05:33N 24°32' E 118°13'1 1.0
2016-Apr-25 04:33N 24°32' E 118°12'9 8.7
2016-Apr-25 03:33N 24°25' E 118°17'0 0.5
2016-Apr-25 02:32N 24°25' E 118°17'0 0.0
2016-Apr-25 01:33N 24°25' E 118°17'0 0.0
2016-Apr-25 00:32N 24°25' E 118°17'0 0.0
2016-Apr-24 23:33N 24°25' E 118°17'0 0.0
2016-Apr-24 22:33N 24°25' E 118°17'0 0.0
2016-Apr-24 21:33N 24°25' E 118°17'0 0.0
2016-Apr-24 20:33N 24°25' E 118°17'0 0.0
2016-Apr-24 19:33N 24°25' E 118°17'0 0.0
2016-Apr-24 18:33N 24°25' E 118°17'0 0.0
2016-Apr-24 17:32N 24°25' E 118°17'0 0.0
2016-Apr-24 16:33N 24°25' E 118°17'0 0.0
2016-Apr-24 15:31N 24°25' E 118°17'0 0.0
2016-Apr-24 14:34N 24°25' E 118°17'0 0.1
2016-Apr-24 09:33N 24°25' E 118°17'0 0.5
2016-Apr-24 08:33N 24°25' E 118°17'7 6.8
2016-Apr-24 07:33N 24°31' E 118°13'1 1.2
2016-Apr-24 06:33N 24°32' E 118°12'8 8.1
2016-Apr-24 05:33N 24°25' E 118°17'0 0.1
2016-Apr-24 04:33N 24°25' E 118°17'8 8.0
2016-Apr-24 03:33N 24°32' E 118°12'1 0.6
2016-Apr-24 02:33N 24°32' E 118°12'9 7.7
2016-Apr-24 01:26N 24°25' E 118°17'0 0.0
2016-Apr-23 06:25N 24°25' E 118°17'8 8.9
2016-Apr-23 05:32N 24°32' E 118°13'0 0.1
2016-Apr-23 04:32N 24°32' E 118°12'8 8.0
2016-Apr-23 03:33N 24°25' E 118°17'0 0.0
2016-Apr-23 02:33N 24°25' E 118°17'2 1.6
2016-Apr-23 01:33N 24°27' E 118°17'7 6.8
2016-Apr-23 00:33N 24°32' E 118°12'8 8.1
2016-Apr-22 23:33N 24°25' E 118°17'0 0.0
2016-Apr-22 22:33N 24°25' E 118°17'0 0.0
2016-Apr-22 21:32N 24°25' E 118°17'0 0.0
2016-Apr-22 20:33N 24°25' E 118°17'0 0.0
2016-Apr-22 19:32N 24°25' E 118°17'0 0.0
2016-Apr-22 18:33N 24°25' E 118°17'0 0.0
2016-Apr-22 17:33N 24°25' E 118°17'0 0.0
2016-Apr-22 16:33N 24°25' E 118°17'0 0.0
2016-Apr-22 15:31N 24°25' E 118°17'0 0.0
2016-Apr-22 14:33N 24°25' E 118°17'9 2.2
2016-Apr-22 10:31N 24°32' E 118°11'8 8.5
2016-Apr-22 09:33N 24°26' E 118°17'1 0.9
2016-Apr-22 08:33N 24°25' E 118°17'0 0.0
2016-Apr-22 07:33N 24°25' E 118°17'9 8.7
2016-Apr-22 06:33N 24°32' E 118°12'0 0.4
2016-Apr-22 05:33N 24°32' E 118°12'8 7.9
2016-Apr-22 04:30N 24°25' E 118°17'0 0.5
2016-Apr-22 03:29N 24°25' E 118°17'0 0.0
2016-Apr-22 02:33N 24°25' E 118°17'0 0.0
2016-Apr-22 01:28N 24°25' E 118°17'0 0.0
2016-Apr-22 00:33N 24°25' E 118°17'0 0.0
2016-Apr-21 23:31N 24°25' E 118°17'0 0.0
2016-Apr-21 22:33N 24°25' E 118°17'0 0.0
2016-Apr-21 21:32N 24°25' E 118°17'0 0.0
2016-Apr-21 20:32N 24°25' E 118°17'0 0.0
2016-Apr-21 19:33N 24°25' E 118°17'0 0.0
2016-Apr-21 18:32N 24°25' E 118°17'0 0.0
2016-Apr-21 17:31N 24°25' E 118°17'0 0.0
2016-Apr-21 16:33N 24°25' E 118°17'0 0.0
2016-Apr-21 15:31N 24°25' E 118°17'  

Dump ship's entire track history